createdAt,value
2018-10-18T00:00:30.957Z,23.90
2018-10-18T00:02:58.149Z,29.20
2018-10-18T00:05:25.396Z,25.80
2018-10-18T00:07:52.592Z,28.80
2018-10-18T00:10:19.719Z,27.27
2018-10-18T00:12:46.885Z,30.73
2018-10-18T00:15:14.056Z,26.93
2018-10-18T00:17:46.291Z,28.70
2018-10-18T00:20:14.309Z,28.20
2018-10-18T00:22:41.614Z,35.40
2018-10-18T00:25:08.847Z,38.10
2018-10-18T00:27:36.242Z,31.27
2018-10-18T00:30:03.487Z,31.20
2018-10-18T00:32:30.659Z,30.60
2018-10-18T00:34:57.831Z,32.97
2018-10-18T00:37:24.995Z,32.63
2018-10-18T00:39:52.157Z,33.10
2018-10-18T00:42:19.319Z,30.70
2018-10-18T00:44:46.486Z,31.17
2018-10-18T00:47:13.678Z,31.83
2018-10-18T00:49:40.851Z,33.80
2018-10-18T00:52:08.118Z,30.93
2018-10-18T00:54:35.294Z,31.10
2018-10-18T00:57:02.467Z,37.80
2018-10-18T00:59:29.645Z,32.93
2018-10-18T01:01:56.826Z,30.60
2018-10-18T01:04:23.998Z,37.77
2018-10-18T01:06:51.166Z,31.43
2018-10-18T01:09:18.325Z,28.27
2018-10-18T01:11:45.494Z,31.07
2018-10-18T01:14:12.707Z,31.83
2018-10-18T01:16:40.139Z,35.50
2018-10-18T01:19:07.314Z,35.00
2018-10-18T01:21:34.483Z,34.50
2018-10-18T01:24:01.703Z,31.87
2018-10-18T01:26:28.852Z,37.10
2018-10-18T01:28:56.094Z,36.93
2018-10-18T01:31:23.270Z,38.10
2018-10-18T01:33:50.435Z,37.20
2018-10-18T01:36:17.657Z,39.07
2018-10-18T01:38:44.799Z,50.90
2018-10-18T01:41:11.967Z,46.17
2018-10-18T01:43:39.139Z,44.93
2018-10-18T01:46:06.661Z,43.83
2018-10-18T01:48:33.848Z,52.23
2018-10-18T01:51:01.036Z,47.13
2018-10-18T01:53:28.195Z,46.27
2018-10-18T01:55:55.411Z,48.73
2018-10-18T01:58:22.531Z,51.20
2018-10-18T02:00:49.750Z,51.70
2018-10-18T02:03:16.960Z,52.83
2018-10-18T02:05:44.163Z,57.63
2018-10-18T02:08:11.427Z,57.50
2018-10-18T02:10:38.498Z,57.23
2018-10-18T02:13:05.731Z,62.77
2018-10-18T02:15:32.932Z,58.50
2018-10-18T02:18:00.175Z,56.03
2018-10-18T02:20:27.282Z,62.77
2018-10-18T02:22:54.467Z,59.80
2018-10-18T02:25:21.640Z,60.63
2018-10-18T02:27:48.799Z,63.83
2018-10-18T02:30:16.093Z,61.70
2018-10-18T02:32:43.163Z,54.27
2018-10-18T02:35:10.379Z,51.63
2018-10-18T02:37:37.588Z,57.23
2018-10-18T02:40:04.914Z,63.47
2018-10-18T02:42:32.093Z,60.30
2018-10-18T02:44:59.290Z,62.07
2018-10-18T02:47:26.470Z,63.63
2018-10-18T02:49:53.638Z,59.80
2018-10-18T02:52:20.811Z,59.87
2018-10-18T02:54:47.987Z,63.70
2018-10-18T02:57:15.155Z,56.57
2018-10-18T02:59:42.327Z,58.13
2018-10-18T03:02:09.818Z,57.90
2018-10-18T03:04:36.998Z,57.07
2018-10-18T03:07:04.465Z,62.63
2018-10-18T03:09:31.685Z,58.17
2018-10-18T03:11:58.852Z,58.23
2018-10-18T03:14:26.011Z,61.10
2018-10-18T03:16:53.253Z,58.87
2018-10-18T03:19:20.423Z,56.40
2018-10-18T03:21:47.602Z,57.90
2018-10-18T03:24:14.867Z,62.13
2018-10-18T03:26:41.997Z,58.63
2018-10-18T03:29:09.181Z,52.37
2018-10-18T03:31:36.390Z,51.70
2018-10-18T03:34:03.563Z,57.33
2018-10-18T03:36:30.751Z,53.47
2018-10-18T03:38:57.948Z,57.60
2018-10-18T03:41:25.170Z,56.00
2018-10-18T03:43:52.269Z,61.03
2018-10-18T03:46:19.438Z,61.07
2018-10-18T03:48:46.639Z,63.80
2018-10-18T03:51:13.838Z,63.63
2018-10-18T03:53:41.058Z,59.00
2018-10-18T03:56:08.267Z,62.97
2018-10-18T03:58:35.471Z,64.50
2018-10-18T04:01:02.643Z,71.23
2018-10-18T04:03:29.921Z,69.83
2018-10-18T04:05:57.124Z,74.90
2018-10-18T04:08:24.258Z,68.90
2018-10-18T04:10:51.438Z,63.77
2018-10-18T04:13:18.682Z,66.77
2018-10-18T04:15:45.826Z,63.83
2018-10-18T04:18:13.059Z,69.40
2018-10-18T04:20:40.225Z,73.17
2018-10-18T04:23:07.385Z,69.10
2018-10-18T04:25:34.674Z,74.97
2018-10-18T04:28:01.792Z,71.10
2018-10-18T04:30:28.963Z,66.63
2018-10-18T04:32:56.135Z,71.23
2018-10-18T04:35:23.299Z,63.60
2018-10-18T04:37:50.845Z,67.03
2018-10-18T04:40:18.062Z,80.73
2018-10-18T04:42:45.234Z,72.97
2018-10-18T04:45:12.410Z,75.57
2018-10-18T04:47:39.681Z,71.03
2018-10-18T04:50:06.911Z,75.40
2018-10-18T04:52:34.075Z,83.13
2018-10-18T04:55:01.262Z,81.83
2018-10-18T04:57:28.415Z,76.80
2018-10-18T04:59:55.602Z,90.80
2018-10-18T05:02:22.884Z,86.57
2018-10-18T05:05:57.406Z,92.30
2018-10-18T05:08:25.503Z,87.73
2018-10-18T05:10:52.933Z,100.60
2018-10-18T05:13:20.152Z,91.93
2018-10-18T05:15:47.287Z,105.20
2018-10-18T05:18:14.507Z,87.40
2018-10-18T05:20:41.677Z,89.80
2018-10-18T05:23:09.156Z,90.43
2018-10-18T05:25:36.396Z,96.83
2018-10-18T05:28:04.089Z,97.17
2018-10-18T05:30:31.265Z,78.37
2018-10-18T05:32:58.453Z,89.73
2018-10-18T05:35:25.673Z,83.93
2018-10-18T05:37:52.910Z,79.97
2018-10-18T05:40:20.129Z,78.87
2018-10-18T05:42:47.461Z,74.03
2018-10-18T05:45:14.618Z,77.60
2018-10-18T05:47:41.783Z,85.03
2018-10-18T05:50:09.784Z,76.30
2018-10-18T05:52:37.139Z,74.50
2018-10-18T05:55:05.002Z,75.03
2018-10-18T05:57:32.137Z,70.83
2018-10-18T05:59:59.328Z,70.70
2018-10-18T06:02:26.502Z,76.03
2018-10-18T06:04:53.670Z,76.43
2018-10-18T06:07:20.850Z,90.10
2018-10-18T06:09:48.051Z,85.20
2018-10-18T06:12:15.190Z,80.37
2018-10-18T06:14:42.372Z,81.00
2018-10-18T06:17:09.526Z,87.57
2018-10-18T06:19:36.713Z,95.07
2018-10-18T06:22:04.066Z,85.03
2018-10-18T06:24:31.243Z,85.77
2018-10-18T06:26:58.412Z,91.17
2018-10-18T06:29:25.608Z,83.80
2018-10-18T06:31:52.774Z,89.47
2018-10-18T06:34:19.954Z,94.27
2018-10-18T06:36:47.143Z,90.63
2018-10-18T06:39:14.357Z,94.23
2018-10-18T06:41:41.764Z,83.30
2018-10-18T06:44:09.080Z,91.43
2018-10-18T06:46:36.274Z,90.27
2018-10-18T06:49:03.632Z,93.47
2018-10-18T06:51:30.671Z,89.37
2018-10-18T06:53:57.896Z,94.83
2018-10-18T06:56:25.058Z,94.63
2018-10-18T06:58:52.229Z,89.47
2018-10-18T07:01:19.418Z,103.73
2018-10-18T07:03:46.622Z,92.27
2018-10-18T07:06:13.928Z,87.20
2018-10-18T07:08:40.993Z,99.90
2018-10-18T07:11:08.268Z,94.83
2018-10-18T07:13:35.415Z,101.33
2018-10-18T07:16:02.621Z,105.13
2018-10-18T07:18:29.798Z,97.97
2018-10-18T07:20:56.981Z,107.83
2018-10-18T07:23:24.154Z,107.33
2018-10-18T07:25:51.346Z,112.17
2018-10-18T07:28:18.552Z,110.70
2018-10-18T07:30:45.721Z,104.50
2018-10-18T07:33:12.949Z,102.43
2018-10-18T07:35:42.200Z,99.73
2018-10-18T07:38:09.353Z,100.83
2018-10-18T07:40:36.537Z,97.80
2018-10-18T07:43:03.711Z,97.60
2018-10-18T07:45:30.894Z,98.77
2018-10-18T07:47:58.091Z,102.43
2018-10-18T07:50:25.275Z,110.33
2018-10-18T07:52:52.502Z,112.67
2018-10-18T07:55:19.646Z,109.97
2018-10-18T07:57:46.830Z,108.60
2018-10-18T08:00:15.254Z,101.80
2018-10-18T08:02:43.042Z,105.03
2018-10-18T08:05:10.935Z,101.47
2018-10-18T08:07:38.377Z,97.10
2018-10-18T08:10:07.065Z,116.63
2018-10-18T08:12:34.202Z,94.93
2018-10-18T08:15:01.389Z,102.70
2018-10-18T08:17:28.671Z,106.70
2018-10-18T08:19:55.815Z,98.37
2018-10-18T08:22:23.056Z,92.47
2018-10-18T08:24:50.216Z,95.33
2018-10-18T08:27:17.402Z,88.00
2018-10-18T08:29:44.588Z,88.73
2018-10-18T08:32:11.806Z,79.27
2018-10-18T08:34:39.006Z,87.83
2018-10-18T08:37:06.226Z,75.77
2018-10-18T08:39:33.390Z,75.40
2018-10-18T08:42:00.715Z,90.30
2018-10-18T08:44:27.966Z,82.73
2018-10-18T08:46:55.071Z,81.70
2018-10-18T08:49:22.304Z,73.30
2018-10-18T08:51:49.459Z,75.73
2018-10-18T08:54:16.641Z,70.20
2018-10-18T08:56:43.834Z,67.33
2018-10-18T08:59:11.160Z,82.17
2018-10-18T09:01:38.297Z,72.40
2018-10-18T09:04:05.470Z,76.30
2018-10-18T09:06:32.658Z,76.50
2018-10-18T09:09:00.016Z,76.83
2018-10-18T09:11:27.159Z,73.73
2018-10-18T09:13:54.321Z,71.30
2018-10-18T09:16:21.521Z,71.63
2018-10-18T09:18:48.689Z,68.10
2018-10-18T09:21:15.896Z,70.80
2018-10-18T09:23:43.124Z,78.50
2018-10-18T09:26:10.253Z,68.77
2018-10-18T09:28:37.435Z,67.17
2018-10-18T09:31:04.773Z,77.30
2018-10-18T09:33:31.851Z,63.10
2018-10-18T09:35:59.039Z,67.07
2018-10-18T09:38:26.391Z,65.87
2018-10-18T09:40:53.410Z,61.57
2018-10-18T09:43:20.599Z,59.03
2018-10-18T09:45:47.770Z,69.00
2018-10-18T09:48:15.021Z,59.63
2018-10-18T09:50:42.227Z,52.50
2018-10-18T09:53:09.412Z,51.90
2018-10-18T09:55:36.622Z,51.70
2018-10-18T09:58:03.773Z,52.33
2018-10-18T10:00:36.486Z,47.90
2018-10-18T10:03:09.211Z,42.10
2018-10-18T10:05:36.402Z,40.37
2018-10-18T10:08:03.622Z,44.17
2018-10-18T10:10:30.786Z,46.07
2018-10-18T10:12:58.008Z,42.80
2018-10-18T10:15:25.153Z,38.97
2018-10-18T10:17:52.347Z,41.73
2018-10-18T10:20:19.509Z,38.27
2018-10-18T10:22:46.702Z,39.53
2018-10-18T10:25:13.993Z,40.90
2018-10-18T10:27:41.207Z,36.33
2018-10-18T10:30:08.844Z,35.80
2018-10-18T10:32:36.031Z,35.27
2018-10-18T10:35:03.326Z,38.07
2018-10-18T10:37:30.433Z,37.80
2018-10-18T10:39:57.650Z,32.40
2018-10-18T10:42:24.845Z,41.97
2018-10-18T10:44:52.071Z,40.10
2018-10-18T10:47:19.189Z,38.07
2018-10-18T10:49:46.383Z,36.47
2018-10-18T10:52:13.625Z,36.80
2018-10-18T10:54:40.742Z,37.47
2018-10-18T10:57:07.947Z,38.17
2018-10-18T10:59:35.162Z,39.30
2018-10-18T11:02:02.409Z,34.90
2018-10-18T11:04:29.566Z,35.80
2018-10-18T11:06:56.734Z,38.30
2018-10-18T11:09:23.923Z,41.73
2018-10-18T11:11:51.157Z,42.27
2018-10-18T11:14:18.352Z,45.03
2018-10-18T11:16:45.446Z,38.60
2018-10-18T11:19:12.650Z,36.40
2018-10-18T11:21:39.989Z,38.37
2018-10-18T11:24:07.145Z,37.73
2018-10-18T11:26:34.336Z,35.37
2018-10-18T11:29:01.559Z,30.43
2018-10-18T11:31:28.750Z,37.20
2018-10-18T11:33:55.930Z,32.20
2018-10-18T11:36:23.123Z,32.63
2018-10-18T11:38:50.315Z,32.70
2018-10-18T11:41:17.482Z,30.50
2018-10-18T11:43:44.642Z,32.07
2018-10-18T11:46:11.871Z,32.77
2018-10-18T11:48:39.094Z,33.80
2018-10-18T11:51:06.312Z,38.30
2018-10-18T11:53:33.485Z,36.03
2018-10-18T11:56:00.694Z,35.00
2018-10-18T11:58:27.869Z,32.60
2018-10-18T12:00:55.045Z,31.43
2018-10-18T12:03:22.238Z,37.00
2018-10-18T12:05:49.430Z,33.20
2018-10-18T12:08:16.697Z,37.33
2018-10-18T12:10:43.830Z,38.77
2018-10-18T12:13:11.054Z,36.60
2018-10-18T12:15:38.231Z,35.97
2018-10-18T12:18:05.427Z,38.17
2018-10-18T12:20:32.609Z,37.80
2018-10-18T12:22:59.828Z,36.20
2018-10-18T12:25:26.984Z,38.47
2018-10-18T12:27:54.167Z,42.70
2018-10-18T12:30:21.350Z,38.73
2018-10-18T12:32:48.525Z,39.50
2018-10-18T12:35:15.806Z,39.13
2018-10-18T12:37:42.954Z,36.40
2018-10-18T12:40:10.172Z,38.33
2018-10-18T12:42:38.944Z,40.30
2018-10-18T12:45:07.168Z,39.17
2018-10-18T12:47:34.333Z,36.37
2018-10-18T12:50:01.554Z,35.63
2018-10-18T12:52:28.694Z,41.00
2018-10-18T12:54:55.912Z,36.77
2018-10-18T12:57:23.225Z,39.17
2018-10-18T12:59:50.435Z,34.00
2018-10-18T13:02:17.666Z,32.63
2018-10-18T13:04:44.860Z,32.35
2018-10-18T13:07:12.013Z,29.77
2018-10-18T13:09:39.186Z,32.23
2018-10-18T13:12:06.396Z,28.17
2018-10-18T13:14:33.518Z,29.53
2018-10-18T13:17:00.685Z,31.10
2018-10-18T13:19:27.850Z,24.17
2018-10-18T13:21:55.018Z,32.93
2018-10-18T13:24:22.475Z,27.40
2018-10-18T13:26:49.696Z,24.83
2018-10-18T13:29:16.900Z,26.00
2018-10-18T13:31:44.054Z,28.60
2018-10-18T13:34:11.296Z,24.00
2018-10-18T13:36:38.389Z,22.23
2018-10-18T13:39:08.227Z,26.77
2018-10-18T13:41:35.317Z,24.37
2018-10-18T13:44:02.534Z,24.83
2018-10-18T13:46:29.729Z,25.80
2018-10-18T13:48:56.867Z,27.33
2018-10-18T13:51:24.042Z,23.97
2018-10-18T13:53:51.248Z,22.67
2018-10-18T13:56:18.476Z,23.93
2018-10-18T13:58:45.607Z,20.80
2018-10-18T14:01:12.787Z,19.20
2018-10-18T14:03:39.959Z,19.70
2018-10-18T14:06:07.225Z,17.10
2018-10-18T14:08:34.461Z,16.63
2018-10-18T14:11:01.635Z,16.47
2018-10-18T14:13:28.779Z,13.47
2018-10-18T14:15:55.946Z,14.03
2018-10-18T14:18:23.126Z,14.73
2018-10-18T14:20:50.334Z,13.50
2018-10-18T14:23:17.594Z,14.90
2018-10-18T14:25:44.706Z,13.20
2018-10-18T14:28:11.914Z,12.93
2018-10-18T14:30:39.092Z,13.80
2018-10-18T14:33:06.260Z,13.73
2018-10-18T14:35:33.441Z,13.87
2018-10-18T14:38:00.604Z,12.63
2018-10-18T14:40:27.795Z,15.93
2018-10-18T14:42:54.990Z,18.13
2018-10-18T14:45:22.165Z,14.23
2018-10-18T14:47:49.440Z,13.60
2018-10-18T14:50:16.724Z,12.90
2018-10-18T14:52:43.899Z,11.90
2018-10-18T14:55:11.086Z,13.83
2018-10-18T14:57:38.590Z,13.80
2018-10-18T15:00:06.987Z,16.30
2018-10-18T15:02:34.162Z,14.10
2018-10-18T15:05:01.392Z,12.33
2018-10-18T15:07:28.677Z,12.80
2018-10-18T15:09:55.851Z,12.40
2018-10-18T15:12:23.035Z,10.53
2018-10-18T15:14:50.190Z,9.90
2018-10-18T15:17:17.419Z,9.40
2018-10-18T15:19:44.515Z,8.97
2018-10-18T15:22:11.715Z,8.60
2018-10-18T15:24:38.874Z,8.07
2018-10-18T15:27:06.353Z,7.13
2018-10-18T15:29:33.288Z,7.50
2018-10-18T15:32:00.554Z,7.03
2018-10-18T15:34:27.702Z,7.30
2018-10-18T15:36:54.866Z,7.23
2018-10-18T15:39:22.136Z,6.77
2018-10-18T15:41:49.218Z,5.90
2018-10-18T15:44:16.434Z,7.13
2018-10-18T15:46:43.525Z,6.27
2018-10-18T15:49:10.686Z,6.13
2018-10-18T15:51:37.858Z,6.73
2018-10-18T15:54:05.349Z,5.67
2018-10-18T15:56:32.419Z,6.07
2018-10-18T15:58:59.627Z,6.50
2018-10-18T16:01:26.770Z,7.00
2018-10-18T16:03:53.983Z,7.93
2018-10-18T16:06:21.216Z,6.40
2018-10-18T16:08:48.386Z,6.20
2018-10-18T16:11:15.569Z,6.10
2018-10-18T16:13:42.629Z,7.30
2018-10-18T16:16:09.781Z,7.17
2018-10-18T16:18:37.038Z,8.70
2018-10-18T16:21:04.438Z,10.17
2018-10-18T16:23:31.774Z,9.20
2018-10-18T16:25:59.078Z,9.20
2018-10-18T16:28:26.147Z,7.97
2018-10-18T16:30:53.315Z,6.77
2018-10-18T16:33:20.491Z,6.30
2018-10-18T16:35:48.526Z,6.40
2018-10-18T16:38:15.732Z,6.73
2018-10-18T16:40:42.992Z,5.27
2018-10-18T16:43:10.406Z,5.60
2018-10-18T16:45:37.572Z,5.93
2018-10-18T16:48:04.781Z,5.80
2018-10-18T16:50:32.120Z,8.07
2018-10-18T16:52:59.270Z,6.27
2018-10-18T16:55:26.430Z,7.30
2018-10-18T16:57:53.649Z,8.00
2018-10-18T17:00:20.882Z,7.00
2018-10-18T17:02:47.933Z,6.87
2018-10-18T17:05:15.106Z,5.90
2018-10-18T17:07:42.277Z,5.80
2018-10-18T17:10:09.532Z,6.03
2018-10-18T17:12:36.657Z,6.90
2018-10-18T17:15:03.989Z,5.77
2018-10-18T17:17:31.232Z,5.37
2018-10-18T17:19:58.426Z,6.33
2018-10-18T17:22:25.547Z,5.20
2018-10-18T17:24:52.711Z,5.00
2018-10-18T17:27:19.972Z,4.47
2018-10-18T17:29:47.042Z,5.37
2018-10-18T17:32:14.282Z,4.40
2018-10-18T17:34:41.388Z,5.03
2018-10-18T17:37:08.708Z,4.77
2018-10-18T17:39:35.866Z,4.53
2018-10-18T17:42:03.148Z,4.80
2018-10-18T17:44:30.331Z,5.90
2018-10-18T17:46:57.512Z,4.53
2018-10-18T17:49:24.685Z,5.23
2018-10-18T17:51:51.884Z,5.00
2018-10-18T17:54:19.107Z,4.10
2018-10-18T17:56:46.338Z,4.47
2018-10-18T17:59:13.510Z,7.23
2018-10-18T18:01:40.707Z,5.43
2018-10-18T18:04:07.916Z,4.80
2018-10-18T18:06:35.229Z,5.23
2018-10-18T18:09:02.367Z,5.50
2018-10-18T18:11:29.554Z,6.33
2018-10-18T18:13:56.711Z,6.00
2018-10-18T18:16:23.883Z,5.97
2018-10-18T18:18:51.093Z,6.00
2018-10-18T18:21:18.281Z,6.40
2018-10-18T18:23:45.455Z,6.80
2018-10-18T18:26:12.653Z,7.93
2018-10-18T18:28:39.834Z,7.00
2018-10-18T18:31:07.021Z,9.80
2018-10-18T18:33:34.134Z,7.63
2018-10-18T18:36:01.303Z,9.60
2018-10-18T18:38:28.445Z,8.70
2018-10-18T18:40:55.586Z,7.40
2018-10-18T18:43:22.768Z,10.97
2018-10-18T18:45:49.948Z,11.60
2018-10-18T18:48:17.211Z,8.90
2018-10-18T18:50:44.470Z,9.93
2018-10-18T18:53:11.716Z,8.87
2018-10-18T18:55:38.778Z,10.90
2018-10-18T18:58:05.923Z,9.00
2018-10-18T19:00:33.087Z,9.33
2018-10-18T19:03:00.262Z,11.40
2018-10-18T19:05:27.412Z,11.93
2018-10-18T19:07:54.587Z,11.93
2018-10-18T19:10:21.733Z,8.03
2018-10-18T19:12:48.890Z,9.43
2018-10-18T19:15:16.074Z,12.23
2018-10-18T19:17:43.203Z,9.97
2018-10-18T19:20:10.354Z,8.07
2018-10-18T19:22:37.628Z,8.07
2018-10-18T19:25:05.315Z,7.03
2018-10-18T19:27:32.550Z,6.77
2018-10-18T19:29:59.724Z,6.70
2018-10-18T19:32:26.879Z,6.33
2018-10-18T19:34:54.043Z,6.57
2018-10-18T19:37:21.234Z,7.30
2018-10-18T19:39:48.374Z,7.57
2018-10-18T19:42:15.575Z,6.60
2018-10-18T19:44:42.742Z,9.33
2018-10-18T19:47:09.943Z,8.93
2018-10-18T19:49:37.090Z,8.03
2018-10-18T19:52:04.563Z,11.00
2018-10-18T19:54:31.669Z,12.10
2018-10-18T19:56:58.832Z,8.37
2018-10-18T19:59:25.986Z,12.80
2018-10-18T20:01:53.218Z,9.77
2018-10-18T20:04:20.402Z,10.30
2018-10-18T20:06:47.557Z,7.73
2018-10-18T20:09:14.714Z,8.40
2018-10-18T20:11:42.262Z,10.73
2018-10-18T20:14:09.528Z,8.40
2018-10-18T20:16:36.861Z,11.03
2018-10-18T20:19:04.530Z,12.73
2018-10-18T20:21:31.678Z,12.50
2018-10-18T20:23:58.865Z,11.40
2018-10-18T20:26:26.156Z,10.57
2018-10-18T20:28:53.222Z,12.70
2018-10-18T20:31:20.374Z,13.13
2018-10-18T20:33:47.741Z,20.00
2018-10-18T20:36:14.915Z,14.90
2018-10-18T20:38:42.088Z,13.23
2018-10-18T20:41:09.312Z,9.60
2018-10-18T20:43:36.441Z,10.53
2018-10-18T20:46:03.706Z,11.20
2018-10-18T20:48:30.819Z,12.93
2018-10-18T20:50:58.009Z,10.87
2018-10-18T20:53:25.126Z,9.60
2018-10-18T20:55:52.275Z,10.73
2018-10-18T20:58:19.427Z,11.30
2018-10-18T21:00:46.578Z,9.27
2018-10-18T21:03:13.743Z,10.10
2018-10-18T21:05:40.890Z,10.97
2018-10-18T21:08:08.037Z,9.20
2018-10-18T21:10:35.209Z,10.40
2018-10-18T21:13:02.431Z,12.23
2018-10-18T21:15:29.515Z,12.00
2018-10-18T21:17:56.713Z,9.73
2018-10-18T21:20:23.842Z,9.30
2018-10-18T21:22:50.999Z,9.00
2018-10-18T21:25:18.210Z,10.53
2018-10-18T21:27:45.515Z,10.30
2018-10-18T21:30:12.693Z,12.80
2018-10-18T21:32:39.954Z,14.10
2018-10-18T21:35:07.168Z,13.90
2018-10-18T21:37:34.276Z,14.97
2018-10-18T21:40:01.455Z,16.00
2018-10-18T21:42:28.613Z,15.50
2018-10-18T21:44:55.904Z,15.17
2018-10-18T21:47:23.123Z,21.00
2018-10-18T21:49:50.278Z,26.73
2018-10-18T21:52:17.455Z,32.13
2018-10-18T21:54:44.627Z,32.37
2018-10-18T21:57:11.866Z,24.60
2018-10-18T21:59:38.946Z,24.07
2018-10-18T22:02:06.105Z,22.00
2018-10-18T22:04:33.271Z,21.03
2018-10-18T22:07:00.423Z,19.80
2018-10-18T22:09:27.581Z,20.43
2018-10-18T22:11:54.738Z,19.33
2018-10-18T22:14:21.913Z,18.27
2018-10-18T22:16:49.050Z,17.73
2018-10-18T22:19:16.199Z,16.40
2018-10-18T22:21:43.357Z,17.17
2018-10-18T22:24:11.123Z,13.87
2018-10-18T22:26:38.285Z,14.87
2018-10-18T22:29:05.819Z,14.30
2018-10-18T22:31:32.929Z,13.97
2018-10-18T22:34:00.074Z,11.10
2018-10-18T22:36:27.241Z,10.57
2018-10-18T22:38:54.657Z,11.13
2018-10-18T22:41:21.914Z,11.00
2018-10-18T22:43:49.065Z,11.97
2018-10-18T22:46:16.233Z,10.60
2018-10-18T22:48:43.391Z,11.07
2018-10-18T22:51:10.617Z,12.27
2018-10-18T22:53:37.714Z,15.63
2018-10-18T22:56:04.863Z,10.60
2018-10-18T22:58:32.023Z,12.27
2018-10-18T23:00:59.178Z,11.13
2018-10-18T23:03:26.330Z,10.83
2018-10-18T23:05:53.475Z,11.43
2018-10-18T23:08:20.644Z,10.57
2018-10-18T23:10:47.793Z,15.00
2018-10-18T23:13:14.967Z,12.60
2018-10-18T23:15:42.122Z,13.60
2018-10-18T23:18:10.202Z,14.07
2018-10-18T23:20:37.934Z,14.30
2018-10-18T23:23:05.455Z,15.80
2018-10-18T23:25:32.606Z,13.13
2018-10-18T23:27:59.758Z,14.87
2018-10-18T23:30:26.925Z,13.40
2018-10-18T23:32:54.239Z,12.60
2018-10-18T23:35:21.349Z,12.50
2018-10-18T23:37:48.621Z,12.10
2018-10-18T23:40:15.775Z,12.40
2018-10-18T23:42:42.952Z,10.97
2018-10-18T23:45:10.370Z,14.13
2018-10-18T23:47:37.495Z,12.53
2018-10-18T23:50:04.855Z,10.13
2018-10-18T23:52:32.034Z,11.53
2018-10-18T23:54:59.254Z,11.40
2018-10-18T23:57:26.437Z,10.23
2018-10-18T23:59:53.637Z,9.47
